createdAt,value
2022-10-09T00:02:53.617Z,66.53
2022-10-09T00:05:56.479Z,66.61
2022-10-09T00:09:02.070Z,66.54
2022-10-09T00:12:05.181Z,66.51
2022-10-09T00:15:08.317Z,66.54
2022-10-09T00:18:13.591Z,66.50
2022-10-09T00:21:19.469Z,66.47
2022-10-09T00:24:22.712Z,66.54
2022-10-09T00:27:25.511Z,66.56
2022-10-09T00:30:28.456Z,66.47
2022-10-09T00:33:31.291Z,66.39
2022-10-09T00:36:34.132Z,66.45
2022-10-09T00:39:36.933Z,66.41
2022-10-09T00:42:40.038Z,66.45
2022-10-09T00:45:54.838Z,66.42
2022-10-09T00:49:25.675Z,66.48
2022-10-09T00:52:29.052Z,66.48
2022-10-09T00:55:35.784Z,66.36
2022-10-09T00:58:38.650Z,66.37
2022-10-09T01:01:41.878Z,66.42
2022-10-09T01:04:44.932Z,66.36
2022-10-09T01:08:10.471Z,66.38
2022-10-09T01:11:38.765Z,66.35
2022-10-09T01:14:47.606Z,66.33
2022-10-09T01:18:15.970Z,66.39
2022-10-09T01:21:23.986Z,66.35
2022-10-09T01:24:29.802Z,66.40
2022-10-09T01:27:33.880Z,66.42
2022-10-09T01:30:37.452Z,66.50
2022-10-09T01:33:41.084Z,66.51
2022-10-09T01:36:45.168Z,66.48
2022-10-09T01:39:49.264Z,66.45
2022-10-09T01:42:52.668Z,66.43
2022-10-09T01:46:18.541Z,66.44
2022-10-09T01:49:30.764Z,66.31
2022-10-09T01:52:41.560Z,66.37
2022-10-09T01:56:03.322Z,66.47
2022-10-09T01:59:15.872Z,66.43
2022-10-09T02:02:20.923Z,66.44
2022-10-09T02:05:27.885Z,66.47
2022-10-09T02:08:33.051Z,66.36
2022-10-09T02:11:36.156Z,66.43
2022-10-09T02:14:39.585Z,66.54
2022-10-09T02:17:47.505Z,66.50
2022-10-09T02:20:54.818Z,66.45
2022-10-09T02:23:58.795Z,66.59
2022-10-09T02:27:02.928Z,66.57
2022-10-09T02:30:08.997Z,66.60
2022-10-09T02:33:11.846Z,66.56
2022-10-09T02:36:14.813Z,66.59
2022-10-09T02:39:17.747Z,66.58
2022-10-09T02:42:20.704Z,66.57
2022-10-09T02:45:23.555Z,66.58
2022-10-09T02:48:26.317Z,66.58
2022-10-09T02:51:29.183Z,66.58
2022-10-09T02:54:32.026Z,66.62
2022-10-09T02:57:34.804Z,66.69
2022-10-09T03:00:39.037Z,66.46
2022-10-09T03:03:42.123Z,66.57
2022-10-09T03:06:44.944Z,66.52
2022-10-09T03:09:47.826Z,66.47
2022-10-09T03:12:50.846Z,66.51
2022-10-09T03:15:54.034Z,66.27
2022-10-09T03:18:58.598Z,66.43
2022-10-09T03:22:01.425Z,66.47
2022-10-09T03:25:04.589Z,66.40
2022-10-09T03:28:07.440Z,66.39
2022-10-09T03:31:22.379Z,66.50
2022-10-09T03:34:33.831Z,66.55
2022-10-09T03:37:36.673Z,66.64
2022-10-09T03:40:39.524Z,66.73
2022-10-09T03:43:42.489Z,66.71
2022-10-09T03:46:45.385Z,66.70
2022-10-09T03:49:48.409Z,66.76
2022-10-09T03:52:51.402Z,66.78
2022-10-09T03:55:54.519Z,66.76
2022-10-09T03:58:57.349Z,66.91
2022-10-09T04:02:00.180Z,67.04
2022-10-09T04:05:03.256Z,67.11
2022-10-09T04:08:06.036Z,67.06
2022-10-09T04:11:08.974Z,67.03
2022-10-09T04:14:11.954Z,67.07
2022-10-09T04:17:14.732Z,67.03
2022-10-09T04:20:18.162Z,67.14
2022-10-09T04:23:23.813Z,67.02
2022-10-09T04:26:26.691Z,67.13
2022-10-09T04:29:29.607Z,66.94
2022-10-09T04:32:32.433Z,67.11
2022-10-09T04:35:35.201Z,67.07
2022-10-09T04:38:38.348Z,67.04
2022-10-09T04:41:41.151Z,66.97
2022-10-09T04:44:43.960Z,67.06
2022-10-09T04:47:46.741Z,66.93
2022-10-09T04:50:49.552Z,67.09
2022-10-09T04:53:52.387Z,67.03
2022-10-09T04:56:55.243Z,66.97
2022-10-09T04:59:58.079Z,66.95
2022-10-09T05:03:00.885Z,66.99
2022-10-09T05:06:05.489Z,67.04
2022-10-09T05:09:08.316Z,66.98
2022-10-09T05:12:11.138Z,67.13
2022-10-09T05:15:13.966Z,67.07
2022-10-09T05:18:16.938Z,67.19
2022-10-09T05:21:20.577Z,67.02
2022-10-09T05:24:23.417Z,67.00
2022-10-09T05:27:26.223Z,67.13
2022-10-09T05:30:29.070Z,67.11
2022-10-09T05:33:32.620Z,67.10
2022-10-09T05:36:35.705Z,67.12
2022-10-09T05:39:39.469Z,67.01
2022-10-09T05:42:42.326Z,67.01
2022-10-09T05:45:45.179Z,67.05
2022-10-09T05:48:53.798Z,66.98
2022-10-09T05:51:56.796Z,66.91
2022-10-09T05:54:59.662Z,66.79
2022-10-09T05:58:02.494Z,66.82
2022-10-09T06:01:05.502Z,66.91
2022-10-09T06:04:12.392Z,66.86
2022-10-09T06:07:15.344Z,66.75
2022-10-09T06:10:18.268Z,66.93
2022-10-09T06:13:21.919Z,66.77
2022-10-09T06:16:28.156Z,66.93
2022-10-09T06:19:31.215Z,66.87
2022-10-09T06:22:34.047Z,66.81
2022-10-09T06:25:36.953Z,66.72
2022-10-09T06:28:40.871Z,66.71
2022-10-09T06:31:43.788Z,66.70
2022-10-09T06:34:46.631Z,66.67
2022-10-09T06:37:49.434Z,66.65
2022-10-09T06:40:52.229Z,66.59
2022-10-09T06:44:01.270Z,66.44
2022-10-09T06:47:04.116Z,66.52
2022-10-09T06:50:07.811Z,66.61
2022-10-09T06:53:10.642Z,66.58
2022-10-09T06:56:14.894Z,66.64
2022-10-09T06:59:17.922Z,66.70
2022-10-09T07:02:20.825Z,66.69
2022-10-09T07:05:23.783Z,66.53
2022-10-09T07:08:26.637Z,66.62
2022-10-09T07:11:43.294Z,66.45
2022-10-09T07:14:46.295Z,66.42
2022-10-09T07:17:49.531Z,66.61
2022-10-09T07:20:52.430Z,66.52
2022-10-09T07:23:55.712Z,66.70
2022-10-09T07:26:58.587Z,66.61
2022-10-09T07:30:01.530Z,66.55
2022-10-09T07:33:04.377Z,66.51
2022-10-09T07:36:08.825Z,66.56
2022-10-09T07:39:11.818Z,66.50
2022-10-09T07:42:14.670Z,66.27
2022-10-09T07:45:17.562Z,66.32
2022-10-09T07:48:20.396Z,66.26
2022-10-09T07:51:28.970Z,66.26
2022-10-09T07:54:31.756Z,66.23
2022-10-09T07:57:34.584Z,66.08
2022-10-09T08:00:37.501Z,66.12
2022-10-09T08:03:40.576Z,66.10
2022-10-09T08:06:43.479Z,66.08
2022-10-09T08:09:46.341Z,65.94
2022-10-09T08:12:49.513Z,66.06
2022-10-09T08:15:52.599Z,66.05
2022-10-09T08:19:00.676Z,65.98
2022-10-09T08:22:04.126Z,65.85
2022-10-09T08:25:07.489Z,65.89
2022-10-09T08:28:10.345Z,65.90
2022-10-09T08:31:15.896Z,65.89
2022-10-09T08:34:18.805Z,65.84
2022-10-09T08:37:21.631Z,65.66
2022-10-09T08:40:49.969Z,65.81
2022-10-09T08:44:02.778Z,65.58
2022-10-09T08:47:08.789Z,65.45
2022-10-09T08:50:18.636Z,65.35
2022-10-09T08:53:42.964Z,65.92
2022-10-09T08:56:47.780Z,68.18
2022-10-09T08:59:51.190Z,66.85
2022-10-09T09:03:17.233Z,66.31
2022-10-09T09:06:38.958Z,66.02
2022-10-09T09:10:03.710Z,65.66
2022-10-09T09:13:14.809Z,65.43
2022-10-09T09:16:55.166Z,65.37
2022-10-09T09:20:15.004Z,65.14
2022-10-09T09:23:20.885Z,65.21
2022-10-09T09:26:24.494Z,65.19
2022-10-09T09:29:29.978Z,65.01
2022-10-09T09:32:33.524Z,64.99
2022-10-09T09:35:50.147Z,64.98
2022-10-09T09:39:40.825Z,64.99
2022-10-09T09:42:20.085Z,64.99
2022-10-09T09:45:26.478Z,64.83
2022-10-09T09:48:34.917Z,64.86
2022-10-09T09:51:37.918Z,64.78
2022-10-09T09:54:48.765Z,64.52
2022-10-09T09:57:51.848Z,64.51
2022-10-09T10:01:03.696Z,64.31
2022-10-09T10:04:20.603Z,64.31
2022-10-09T10:07:32.646Z,64.18
2022-10-09T10:10:35.635Z,64.26
2022-10-09T10:13:47.080Z,64.33
2022-10-09T10:16:52.003Z,64.33
2022-10-09T10:19:54.942Z,64.18
2022-10-09T10:23:00.656Z,63.93
2022-10-09T10:26:12.754Z,63.82
2022-10-09T10:29:25.273Z,63.60
2022-10-09T10:32:46.512Z,63.36
2022-10-09T10:35:55.360Z,63.12
2022-10-09T10:39:09.205Z,63.07
2022-10-09T10:42:19.288Z,62.64
2022-10-09T10:45:29.208Z,62.39
2022-10-09T10:48:39.363Z,61.87
2022-10-09T10:51:51.889Z,61.50
2022-10-09T10:54:58.432Z,61.47
2022-10-09T11:02:04.639Z,61.20
2022-10-09T11:05:45.447Z,61.07
2022-10-09T11:09:14.940Z,60.78
2022-10-09T11:12:54.553Z,60.58
2022-10-09T11:16:17.195Z,60.16
2022-10-09T11:19:26.143Z,60.04
2022-10-09T11:22:57.047Z,60.21
2022-10-09T11:26:15.106Z,59.99
2022-10-09T11:29:24.634Z,59.95
2022-10-09T11:32:36.734Z,59.98
2022-10-09T11:35:47.802Z,60.02
2022-10-09T11:38:59.461Z,59.54
2022-10-09T11:42:02.935Z,60.68
2022-10-09T11:45:21.268Z,63.47
2022-10-09T11:48:47.667Z,61.42
2022-10-09T11:52:03.528Z,60.48
2022-10-09T11:55:25.388Z,59.98
2022-10-09T11:58:28.307Z,60.06
2022-10-09T12:01:42.953Z,59.89
2022-10-09T12:04:54.773Z,59.74
2022-10-09T12:08:19.239Z,59.67
2022-10-09T12:11:24.269Z,59.77
2022-10-09T12:14:30.321Z,59.71
2022-10-09T12:17:35.184Z,59.71
2022-10-09T12:20:39.892Z,59.56
2022-10-09T12:23:42.873Z,59.45
2022-10-09T12:26:47.036Z,59.71
2022-10-09T12:30:07.814Z,59.81
2022-10-09T12:33:45.781Z,59.72
2022-10-09T12:36:48.775Z,59.67
2022-10-09T12:39:51.825Z,59.64
2022-10-09T12:42:57.226Z,59.79
2022-10-09T12:46:00.157Z,59.76
2022-10-09T12:49:06.327Z,59.61
2022-10-09T12:52:15.158Z,59.69
2022-10-09T12:55:27.235Z,59.65
2022-10-09T12:58:36.114Z,59.58
2022-10-09T13:01:42.777Z,59.62
2022-10-09T13:05:02.340Z,59.70
2022-10-09T13:08:07.629Z,59.70
2022-10-09T13:11:19.986Z,59.75
2022-10-09T13:14:33.672Z,59.76
2022-10-09T13:17:41.756Z,59.73
2022-10-09T13:20:44.522Z,59.99
2022-10-09T13:23:48.055Z,60.16
2022-10-09T13:26:51.788Z,60.36
2022-10-09T13:29:55.037Z,60.62
2022-10-09T13:32:58.330Z,60.86
2022-10-09T13:36:01.132Z,61.00
2022-10-09T13:39:04.678Z,60.77
2022-10-09T13:42:07.850Z,60.71
2022-10-09T13:45:11.046Z,60.76
2022-10-09T13:48:13.930Z,60.88
2022-10-09T13:51:16.888Z,60.69
2022-10-09T13:54:19.688Z,60.47
2022-10-09T13:57:22.509Z,60.49
2022-10-09T14:00:25.390Z,60.39
2022-10-09T14:03:28.212Z,60.40
2022-10-09T14:06:34.137Z,60.54
2022-10-09T14:09:37.084Z,60.57
2022-10-09T14:12:40.034Z,60.64
2022-10-09T14:15:42.912Z,60.54
2022-10-09T14:18:45.771Z,60.44
2022-10-09T14:21:48.575Z,60.48
2022-10-09T14:24:51.484Z,60.38
2022-10-09T14:27:54.601Z,60.37
2022-10-09T14:30:57.635Z,60.31
2022-10-09T14:34:00.778Z,60.88
2022-10-09T14:37:13.577Z,63.78
2022-10-09T14:40:22.004Z,61.44
2022-10-09T14:43:25.304Z,60.49
2022-10-09T14:46:29.203Z,59.98
2022-10-09T14:49:32.408Z,59.86
2022-10-09T14:52:35.905Z,59.88
2022-10-09T14:55:38.676Z,60.07
2022-10-09T14:58:42.188Z,59.98
2022-10-09T15:01:44.993Z,59.99
2022-10-09T15:04:48.004Z,60.14
2022-10-09T15:07:51.029Z,60.22
2022-10-09T15:10:53.986Z,60.31
2022-10-09T15:13:56.950Z,60.38
2022-10-09T15:17:00.217Z,60.54
2022-10-09T15:20:03.318Z,60.62
2022-10-09T15:23:06.365Z,60.62
2022-10-09T15:26:09.938Z,60.72
2022-10-09T15:29:12.809Z,60.70
2022-10-09T15:32:15.651Z,60.93
2022-10-09T15:35:18.644Z,60.97
2022-10-09T15:38:24.324Z,60.89
2022-10-09T15:41:30.471Z,60.98
2022-10-09T15:44:33.392Z,61.01
2022-10-09T15:47:50.546Z,61.14
2022-10-09T15:50:53.945Z,61.23
2022-10-09T15:53:59.262Z,61.28
2022-10-09T15:57:02.184Z,61.17
2022-10-09T16:00:05.615Z,61.26
2022-10-09T16:03:08.957Z,61.32
2022-10-09T16:06:16.152Z,61.31
2022-10-09T16:09:19.688Z,61.43
2022-10-09T16:12:23.242Z,61.61
2022-10-09T16:15:26.848Z,61.53
2022-10-09T16:18:29.937Z,61.70
2022-10-09T16:21:34.196Z,61.80
2022-10-09T16:24:37.463Z,61.90
2022-10-09T16:27:40.351Z,61.80
2022-10-09T16:30:47.254Z,61.98
2022-10-09T16:33:50.479Z,62.02
2022-10-09T16:36:53.428Z,61.82
2022-10-09T16:39:56.350Z,62.00
2022-10-09T16:43:01.722Z,62.01
2022-10-09T16:46:21.820Z,62.11
2022-10-09T16:49:25.211Z,62.13
2022-10-09T16:52:28.352Z,62.13
2022-10-09T16:55:31.180Z,62.20
2022-10-09T16:58:34.406Z,62.22
2022-10-09T17:01:40.318Z,62.37
2022-10-09T17:04:43.178Z,62.29
2022-10-09T17:07:47.361Z,62.41
2022-10-09T17:10:50.458Z,62.40
2022-10-09T17:13:56.974Z,62.36
2022-10-09T17:17:00.039Z,62.52
2022-10-09T17:20:03.156Z,62.50
2022-10-09T17:23:06.495Z,62.43
2022-10-09T17:26:17.927Z,62.33
2022-10-09T17:29:21.806Z,62.48
2022-10-09T17:32:25.291Z,62.28
2022-10-09T17:35:28.150Z,62.63
2022-10-09T17:38:31.083Z,62.46
2022-10-09T17:41:36.369Z,62.58
2022-10-09T17:44:39.414Z,62.54
2022-10-09T17:47:42.301Z,62.52
2022-10-09T17:50:56.696Z,62.76
2022-10-09T17:54:04.878Z,62.77
2022-10-09T17:57:12.482Z,62.78
2022-10-09T18:00:20.864Z,62.73
2022-10-09T18:03:25.268Z,62.88
2022-10-09T18:06:32.572Z,62.89
2022-10-09T18:09:35.780Z,62.92
2022-10-09T18:12:39.950Z,62.77
2022-10-09T18:15:44.219Z,62.74
2022-10-09T18:18:49.324Z,62.69
2022-10-09T18:22:02.024Z,62.82
2022-10-09T18:25:06.671Z,62.77
2022-10-09T18:28:11.980Z,62.89
2022-10-09T18:31:18.563Z,62.94
2022-10-09T18:34:22.912Z,62.96
2022-10-09T18:37:25.866Z,62.94
2022-10-09T18:40:29.940Z,62.80
2022-10-09T18:43:32.868Z,62.89
2022-10-09T18:46:39.870Z,63.00
2022-10-09T18:49:52.725Z,62.90
2022-10-09T18:53:00.486Z,62.95
2022-10-09T18:56:07.988Z,62.91
2022-10-09T18:59:16.964Z,62.90
2022-10-09T19:02:23.405Z,63.07
2022-10-09T19:05:29.109Z,63.14
2022-10-09T19:08:35.405Z,63.22
2022-10-09T19:11:40.825Z,63.17
2022-10-09T19:14:45.410Z,63.20
2022-10-09T19:17:49.777Z,63.13
2022-10-09T19:20:54.969Z,63.01
2022-10-09T19:24:06.709Z,62.89
2022-10-09T19:27:12.926Z,62.93
2022-10-09T19:30:16.364Z,62.93
2022-10-09T19:33:19.550Z,62.91
2022-10-09T19:36:23.428Z,63.02
2022-10-09T19:39:26.754Z,63.10
2022-10-09T19:42:29.788Z,63.09
2022-10-09T19:45:35.685Z,63.19
2022-10-09T19:48:41.566Z,63.39
2022-10-09T19:51:45.365Z,63.52
2022-10-09T19:54:49.797Z,63.41
2022-10-09T19:57:53.477Z,63.36
2022-10-09T20:00:56.339Z,63.36
2022-10-09T20:04:03.169Z,63.47
2022-10-09T20:07:09.078Z,63.35
2022-10-09T20:10:15.568Z,63.30
2022-10-09T20:13:18.397Z,63.42
2022-10-09T20:16:21.267Z,63.37
2022-10-09T20:19:25.846Z,63.60
2022-10-09T20:22:30.619Z,63.52
2022-10-09T20:25:33.916Z,63.49
2022-10-09T20:28:38.272Z,63.33
2022-10-09T20:31:42.117Z,63.32
2022-10-09T20:34:44.953Z,63.24
2022-10-09T20:37:47.768Z,63.41
2022-10-09T20:40:50.879Z,63.27
2022-10-09T20:43:55.047Z,63.27
2022-10-09T20:46:57.944Z,63.33
2022-10-09T20:50:01.063Z,63.21
2022-10-09T20:53:04.841Z,63.15
2022-10-09T20:56:11.490Z,63.17
2022-10-09T20:59:15.197Z,63.04
2022-10-09T21:02:20.605Z,63.09
2022-10-09T21:05:23.458Z,63.15
2022-10-09T21:08:26.324Z,63.17
2022-10-09T21:11:31.922Z,63.14
2022-10-09T21:14:37.559Z,63.09
2022-10-09T21:17:40.357Z,62.97
2022-10-09T21:20:45.616Z,63.04
2022-10-09T21:23:54.211Z,63.17
2022-10-09T21:26:57.749Z,63.15
2022-10-09T21:30:00.848Z,63.08
2022-10-09T21:33:06.434Z,63.11
2022-10-09T21:36:11.205Z,63.05
2022-10-09T21:39:14.081Z,63.05
2022-10-09T21:42:16.898Z,63.07
2022-10-09T21:45:19.724Z,63.14
2022-10-09T21:48:22.528Z,63.04
2022-10-09T21:51:27.168Z,63.15
2022-10-09T21:54:30.031Z,63.20
2022-10-09T21:57:32.916Z,63.27
2022-10-09T22:00:36.671Z,63.03
2022-10-09T22:03:40.899Z,63.17
2022-10-09T22:06:43.831Z,63.13
2022-10-09T22:09:46.664Z,63.07
2022-10-09T22:12:49.794Z,63.18
2022-10-09T22:15:52.881Z,63.19
2022-10-09T22:18:56.058Z,63.10
2022-10-09T22:21:58.957Z,62.95
2022-10-09T22:25:01.777Z,63.12
2022-10-09T22:28:06.175Z,63.10
2022-10-09T22:31:19.245Z,63.09
2022-10-09T22:34:23.118Z,63.13
2022-10-09T22:37:26.082Z,63.26
2022-10-09T22:40:29.022Z,63.25
2022-10-09T22:43:32.049Z,63.36
2022-10-09T22:46:41.214Z,63.40
2022-10-09T22:49:44.209Z,63.11
2022-10-09T22:52:47.063Z,63.38
2022-10-09T22:56:01.295Z,63.38
2022-10-09T22:59:05.311Z,63.36
2022-10-09T23:02:08.328Z,63.40
2022-10-09T23:05:11.287Z,63.22
2022-10-09T23:08:14.160Z,63.14
2022-10-09T23:11:18.565Z,63.14
2022-10-09T23:14:21.581Z,63.27
2022-10-09T23:17:24.434Z,63.19
2022-10-09T23:20:27.318Z,63.24
2022-10-09T23:23:31.405Z,63.11
2022-10-09T23:26:38.725Z,63.17
2022-10-09T23:29:41.526Z,63.20
2022-10-09T23:32:44.448Z,63.00
2022-10-09T23:35:47.324Z,62.94
2022-10-09T23:38:50.947Z,63.01
2022-10-09T23:41:53.739Z,63.07
2022-10-09T23:44:56.590Z,63.04
2022-10-09T23:47:59.398Z,63.22
2022-10-09T23:51:02.680Z,63.32
2022-10-09T23:54:05.583Z,63.30
2022-10-09T23:57:08.443Z,63.20
